Language selection

My Weather Profile Weather Topics  | 

Whitefish Bay: Past 24 Hour Conditions

 

Caribou Island

11:00 AM EST 01 February 2023
Disclaimer

This table is a summary of hourly weather conditions for the past 24 hours.
Please note that these observations might not always be representative of weather conditions over their associated marine area.

Date / Time
(EST)
Wind(knots) Conditions Visibility(km) Pressure(kPa) Air tempC) Relative humidity(%) Dew pointC) Wind Chill
01 February 2023
11:00 W 24 N/A N/A 101.9 -5 66 -10 -15
10:00 W 24 N/A N/A 101.9 -6 79 -9 -16
9:00 WNW 25 gust 30 N/A N/A 101.9 -6 80 -9 -16
8:00 WNW 25 gust 30 N/A N/A 101.9 -6 84 -8 -16
7:00 WNW 22 gust 28 N/A N/A 101.8 -6 79 -9 -16
6:00 WNW 25 gust 30 N/A N/A 101.8 -6 87 -8 -16
5:00 NW 15 gust 22 N/A N/A 101.7 -6 94 -7 -14
4:00 NW 15 gust 27 N/A N/A 101.7 -6 92 -7 -14
3:00 W 21 gust 28 N/A N/A 101.7 -6 91 -7 -15
2:00 W 24 gust 30 N/A N/A 101.7 -5 83 -8 -15
1:00 WSW 22 gust 28 N/A N/A 101.8 -6 79 -9 -15
0:00 W 22 N/A N/A 101.8 -6 76 -9 -15
31 January 2023
23:00 WSW 17 N/A N/A 101.8 -6 76 -10 -14
22:00 WSW 16 gust 25 N/A N/A 101.9 -6 70 -11 -14
21:00 WSW 15 gust 22 N/A N/A 101.9 -7 77 -10 -15
20:00 WSW 16 gust 21 N/A N/A 102.0 -7 74 -10 -15
19:00 WSW 16 gust 24 N/A N/A 102.0 -7 70 -12 -15
18:00 WSW 19 N/A N/A 102.0 -7 72 -11 -16
17:00 WSW 19 N/A N/A 102.0 -7 72 -11 -16
16:00 WSW 18 gust 27 N/A N/A 102.1 -7 70 -12 -17
15:00 WSW 22 gust 28 N/A N/A 102.1 -7 72 -11 -16
14:00 WSW 24 N/A N/A 102.1 -6 69 -11 -16
13:00 WSW 26 N/A N/A 102.2 -6 75 -10 -17
12:00 WSW 25 gust 32 N/A N/A 102.3 -7 72 -11 -17
11:00 WSW 28 gust 33 N/A N/A 102.3 -6 73 -10 -16

Zoom-in to make a selection

Map of Great Lakes - Lake Superior marine weather areas Mid Superior - 45001 East Superior - 45004 West Superior - 45006 Slate Island - 45136 Lake Of the Woods - 45148 Kenora Airport Royal Island Armstrong Airport Caribou Island Marathon Airport Pukaskwa National Park Thunder Bay Airport Welcome Island Little Flatland Island Sault Ste. Marie Airport Wawa Airport
Legend:
buoy Buoy
land station Land Station

Great Lakes - Lake Superior Area

Another Region

What we are doing

Date modified: